Time;durP1;ratioP1;P1;durP2;ratioP2;P2;SDS_P1;SDS_P2;PMS_P1;PMS_P2;Temp;Humidity;BMP_temperature;BMP_pressure;BME280_temperature;BME280_humidity;BME280_pressure;Samples;Min_cycle;Max_cycle;Signal;HPM_P1;HPM_P2
2021/07/06 00:01:11;;;;;;;4.33;1.70;;;15.70;99.90;;;;;;2039337;69;21067;-78
2021/07/06 00:03:37;;;;;;;2.95;1.40;;;15.60;99.90;;;;;;2038991;69;21048;-78
2021/07/06 00:06:04;;;;;;;3.42;1.22;;;15.60;99.90;;;;;;2038918;69;21172;-79
2021/07/06 00:08:30;;;;;;;2.95;1.62;;;15.60;99.90;;;;;;2039553;70;21060;-77
2021/07/06 00:10:57;;;;;;;2.08;1.52;;;15.60;99.90;;;;;;2040581;70;21052;-78
2021/07/06 00:13:23;;;;;;;3.80;1.45;;;15.60;99.90;;;;;;2046038;70;21033;-78
2021/07/06 00:15:49;;;;;;;2.12;1.60;;;15.60;99.90;;;;;;2044698;69;21052;-78
2021/07/06 00:18:15;;;;;;;1.62;1.40;;;15.50;99.90;;;;;;2038800;70;21125;-77
2021/07/06 00:20:41;;;;;;;1.87;1.27;;;15.50;99.90;;;;;;2038350;70;21137;-78
2021/07/06 00:23:08;;;;;;;3.00;1.30;;;15.50;99.90;;;;;;2039083;70;21032;-78
2021/07/06 00:25:34;;;;;;;5.15;1.50;;;15.40;99.90;;;;;;2039471;70;21128;-78
2021/07/06 00:28:00;;;;;;;2.67;1.45;;;15.50;99.90;;;;;;2040116;70;21060;-77
2021/07/06 00:30:26;;;;;;;2.65;1.62;;;15.50;99.90;;;;;;2039836;69;21071;-78
2021/07/06 00:32:52;;;;;;;1.52;1.35;;;15.40;99.90;;;;;;2040157;70;21066;-78
2021/07/06 00:35:18;;;;;;;3.47;1.52;;;15.40;99.90;;;;;;2038161;69;21491;-78
2021/07/06 00:37:44;;;;;;;2.10;1.40;;;15.40;99.90;;;;;;2038667;69;21503;-78
2021/07/06 00:40:10;;;;;;;3.90;1.70;;;15.40;99.90;;;;;;2040794;69;21475;-78
2021/07/06 00:42:37;;;;;;;3.62;1.20;;;15.30;99.90;;;;;;2039211;70;21409;-78
2021/07/06 00:45:03;;;;;;;3.33;1.70;;;15.30;99.90;;;;;;2040327;70;21530;-77
2021/07/06 00:47:29;;;;;;;8.10;2.02;;;15.30;99.90;;;;;;2039588;70;21565;-78
2021/07/06 00:49:55;;;;;;;4.92;1.60;;;15.40;99.90;;;;;;2038922;69;21498;-77
2021/07/06 00:52:21;;;;;;;2.70;1.60;;;15.40;99.90;;;;;;2040295;69;21033;-76
2021/07/06 00:54:47;;;;;;;1.87;1.50;;;15.30;99.90;;;;;;2040312;69;21056;-77
2021/07/06 00:57:13;;;;;;;1.52;1.42;;;15.30;99.90;;;;;;2038355;69;21056;-78
2021/07/06 00:59:39;;;;;;;2.33;1.62;;;15.30;99.90;;;;;;2039860;69;21041;-79
2021/07/06 01:02:06;;;;;;;3.58;1.70;;;15.30;99.90;;;;;;2040443;70;21060;-77
2021/07/06 01:04:32;;;;;;;3.10;1.12;;;15.20;99.90;;;;;;2040327;70;21040;-78
2021/07/06 01:06:58;;;;;;;7.17;2.00;;;15.20;99.90;;;;;;2039563;70;21165;-77
2021/07/06 01:09:25;;;;;;;2.35;1.80;;;15.30;99.90;;;;;;2040572;69;21204;-78
2021/07/06 01:11:51;;;;;;;5.35;1.62;;;15.20;99.90;;;;;;2039573;70;21028;-78
2021/07/06 01:14:17;;;;;;;3.80;1.40;;;15.20;99.90;;;;;;2038158;69;21065;-77
2021/07/06 01:16:43;;;;;;;6.35;1.20;;;15.10;99.90;;;;;;2038939;70;21252;-77
2021/07/06 01:19:10;;;;;;;3.60;1.27;;;15.00;99.90;;;;;;2040368;70;21601;-77
2021/07/06 01:21:36;;;;;;;8.23;1.62;;;15.10;99.90;;;;;;2038212;69;21096;-77
2021/07/06 01:24:03;;;;;;;1.75;1.47;;;15.10;99.90;;;;;;2040288;69;21025;-77
2021/07/06 01:26:29;;;;;;;1.87;1.40;;;15.20;99.90;;;;;;2040136;69;21065;-77
2021/07/06 01:28:55;;;;;;;4.45;1.30;;;15.20;99.90;;;;;;2039328;70;21127;-78
2021/07/06 01:31:21;;;;;;;1.67;1.57;;;15.20;99.90;;;;;;2040702;70;21048;-78
2021/07/06 01:33:47;;;;;;;1.80;1.50;;;15.20;99.90;;;;;;2040931;70;21042;-77
2021/07/06 01:36:16;;;;;;;6.20;1.30;;;15.20;99.90;;;;;;2040742;70;21044;-77
2021/07/06 01:38:41;;;;;;;3.83;1.55;;;15.20;99.90;;;;;;2039062;69;21080;-78
2021/07/06 01:41:07;;;;;;;4.00;1.40;;;15.10;99.90;;;;;;2040200;69;21052;-77
2021/07/06 01:43:33;;;;;;;2.17;1.67;;;15.10;99.90;;;;;;2038915;70;21076;-78
2021/07/06 01:45:59;;;;;;;1.92;1.30;;;15.10;99.90;;;;;;2041051;70;21124;-78
2021/07/06 01:48:26;;;;;;;3.15;1.40;;;15.10;99.90;;;;;;2040766;69;21138;-78
2021/07/06 01:50:52;;;;;;;1.50;1.10;;;15.10;99.90;;;;;;2038494;70;21104;-77
2021/07/06 01:53:18;;;;;;;10.65;1.42;;;15.10;99.90;;;;;;2040246;70;21052;-78
2021/07/06 01:55:45;;;;;;;4.37;1.20;;;15.10;99.90;;;;;;2040904;70;21168;-77
2021/07/06 01:58:11;;;;;;;1.60;1.50;;;15.00;99.90;;;;;;2039331;70;21052;-78
2021/07/06 02:00:37;;;;;;;1.50;1.40;;;15.00;99.90;;;;;;2039989;70;21105;-78
2021/07/06 02:03:03;;;;;;;4.62;2.22;;;15.00;99.90;;;;;;2040958;70;21040;-78
2021/07/06 02:05:30;;;;;;;7.62;1.95;;;15.00;99.90;;;;;;2040233;70;21056;-78
2021/07/06 02:07:56;;;;;;;2.35;2.10;;;15.00;99.90;;;;;;2038619;70;21107;-77
2021/07/06 02:10:22;;;;;;;3.72;2.08;;;15.00;99.90;;;;;;2040687;69;21468;-78
2021/07/06 02:12:48;;;;;;;1.92;1.72;;;14.90;99.90;;;;;;2040411;70;21421;-77
2021/07/06 02:15:15;;;;;;;3.67;1.57;;;14.90;99.90;;;;;;2040325;69;21456;-78
2021/07/06 02:17:41;;;;;;;1.90;1.80;;;14.80;99.90;;;;;;2039905;70;21059;-78
2021/07/06 02:20:08;;;;;;;2.12;1.42;;;14.80;99.90;;;;;;2038964;70;21096;-78
2021/07/06 02:22:34;;;;;;;1.50;1.40;;;14.90;99.90;;;;;;2039458;69;21641;-78
2021/07/06 02:25:02;;;;;;;2.00;1.52;;;14.80;99.90;;;;;;2039969;69;21429;-77
2021/07/06 02:27:28;;;;;;;2.00;1.17;;;14.80;99.90;;;;;;2040656;70;21061;-77
2021/07/06 02:29:54;;;;;;;1.10;1.00;;;14.80;99.90;;;;;;2038333;70;21104;-77
2021/07/06 02:32:20;;;;;;;8.10;1.10;;;14.80;99.90;;;;;;2039198;70;21085;-77
2021/07/06 02:34:46;;;;;;;1.20;1.10;;;14.80;99.90;;;;;;2040698;69;21048;-77
2021/07/06 02:37:13;;;;;;;1.30;1.20;;;14.80;99.90;;;;;;2040901;70;21056;-77
2021/07/06 02:39:45;;;;;;;1.32;1.20;;;14.80;99.90;;;;;;2040908;70;21109;-76
2021/07/06 02:42:08;;;;;;;1.30;1.20;;;14.80;99.90;;;;;;2038284;69;21148;-77
2021/07/06 02:44:34;;;;;;;5.00;1.17;;;14.80;99.90;;;;;;2039688;70;21200;-79
2021/07/06 02:47:01;;;;;;;2.70;1.32;;;14.80;99.90;;;;;;2038363;69;21052;-77
2021/07/06 02:49:29;;;;;;;1.22;1.12;;;14.70;99.90;;;;;;2038597;70;21162;-78
2021/07/06 02:51:56;;;;;;;1.42;1.30;;;14.80;99.90;;;;;;2038508;69;21089;-77
2021/07/06 02:54:22;;;;;;;1.85;1.25;;;14.80;99.90;;;;;;2038511;70;21093;-76
2021/07/06 02:56:48;;;;;;;1.98;1.42;;;14.70;99.90;;;;;;2039551;69;21480;-77
2021/07/06 02:59:17;;;;;;;1.20;1.10;;;14.70;99.90;;;;;;2040296;70;21460;-78
2021/07/06 03:01:43;;;;;;;1.30;1.20;;;14.70;99.90;;;;;;2042142;69;21065;-77
2021/07/06 03:04:14;;;;;;;4.20;1.27;;;14.70;99.90;;;;;;2043276;70;21065;-77
2021/07/06 03:06:38;;;;;;;2.35;1.07;;;14.70;99.90;;;;;;2041141;70;21072;-77
2021/07/06 03:09:05;;;;;;;5.00;1.15;;;14.60;99.90;;;;;;2040834;70;21620;-77
2021/07/06 03:11:31;;;;;;;1.42;1.32;;;14.70;99.90;;;;;;2038850;70;21122;-77
2021/07/06 03:14:00;;;;;;;3.33;1.40;;;14.60;99.90;;;;;;2039795;70;21025;-77
2021/07/06 03:16:26;;;;;;;3.22;1.27;;;14.50;99.90;;;;;;2039249;69;21507;-78
2021/07/06 03:18:52;;;;;;;1.85;1.20;;;14.50;99.90;;;;;;2040229;70;21051;-77
2021/07/06 03:21:18;;;;;;;2.33;1.30;;;14.60;99.90;;;;;;2039660;69;21052;-78
2021/07/06 03:23:45;;;;;;;3.58;1.50;;;14.50;99.90;;;;;;2039968;70;21150;-77
2021/07/06 03:26:11;;;;;;;2.12;1.40;;;14.60;99.90;;;;;;2039282;70;21159;-78
2021/07/06 03:28:41;;;;;;;5.67;1.47;;;14.60;99.90;;;;;;2039815;70;21056;-77
2021/07/06 03:31:07;;;;;;;;;;;14.60;99.90;;;;;;2043174;70;21224;-77
2021/07/06 03:33:35;;;;;;;2.40;1.32;;;14.50;99.90;;;;;;2039483;70;20179;-77
2021/07/06 03:36:01;;;;;;;1.40;1.27;;;14.40;99.90;;;;;;2040747;70;21041;-78
2021/07/06 03:38:27;;;;;;;2.58;1.17;;;14.50;99.90;;;;;;2038444;69;21156;-77
2021/07/06 03:40:54;;;;;;;1.75;1.02;;;14.50;99.90;;;;;;2039081;69;21492;-77
2021/07/06 03:43:20;;;;;;;1.27;0.90;;;14.50;99.90;;;;;;2038983;70;21538;-77
2021/07/06 03:45:46;;;;;;;2.15;1.30;;;14.50;99.90;;;;;;2038633;70;21482;-77
2021/07/06 03:48:12;;;;;;;4.67;1.57;;;14.50;99.90;;;;;;2038506;70;21483;-77
2021/07/06 03:50:38;;;;;;;1.87;1.35;;;14.50;99.90;;;;;;2040389;70;21480;-77
2021/07/06 03:53:06;;;;;;;1.62;1.52;;;14.60;99.90;;;;;;2038680;70;21492;-77
2021/07/06 03:55:32;;;;;;;9.00;1.32;;;14.60;99.90;;;;;;2038929;69;21125;-77
2021/07/06 03:57:58;;;;;;;1.67;1.07;;;14.60;99.90;;;;;;2038505;69;21088;-77
2021/07/06 04:00:28;;;;;;;1.90;1.30;;;14.60;99.90;;;;;;2040102;69;21207;-78
2021/07/06 04:02:52;;;;;;;2.08;1.20;;;14.60;99.90;;;;;;2037227;69;21069;-76
2021/07/06 04:05:18;;;;;;;1.05;0.95;;;14.60;99.90;;;;;;2038379;70;21077;-77
2021/07/06 04:07:46;;;;;;;1.30;1.20;;;14.60;99.90;;;;;;2038585;70;21052;-76
2021/07/06 04:10:12;;;;;;;2.83;1.10;;;14.70;99.90;;;;;;2038340;70;21421;-76
2021/07/06 04:12:38;;;;;;;1.57;1.10;;;14.70;99.90;;;;;;2038019;69;21084;-77
2021/07/06 04:15:04;;;;;;;2.45;0.93;;;14.70;99.90;;;;;;2038250;70;21106;-76
2021/07/06 04:17:30;;;;;;;8.73;1.20;;;14.80;99.90;;;;;;2038205;70;21092;-77
2021/07/06 04:19:56;;;;;;;1.25;1.05;;;14.80;99.90;;;;;;2038454;69;21051;-76
2021/07/06 04:22:23;;;;;;;1.22;1.10;;;14.90;99.90;;;;;;2038163;70;21117;-76
2021/07/06 04:24:49;;;;;;;1.30;1.10;;;14.90;99.90;;;;;;2039934;70;21126;-76
2021/07/06 04:27:15;;;;;;;1.67;1.30;;;14.90;99.90;;;;;;2040230;69;21095;-77
2021/07/06 04:29:41;;;;;;;1.30;1.20;;;14.90;99.90;;;;;;2041478;69;21021;-77
2021/07/06 04:32:08;;;;;;;1.50;1.15;;;14.90;99.90;;;;;;2038191;70;21041;-77
2021/07/06 04:34:34;;;;;;;2.05;1.17;;;15.00;99.90;;;;;;2038873;69;21051;-77
2021/07/06 04:37:00;;;;;;;2.02;1.15;;;15.00;99.90;;;;;;2038591;69;21117;-77
2021/07/06 04:39:26;;;;;;;3.92;1.30;;;15.00;99.90;;;;;;2039908;69;21109;-77
2021/07/06 04:41:52;;;;;;;1.62;1.07;;;15.10;99.90;;;;;;2038217;70;21040;-77
2021/07/06 04:44:18;;;;;;;4.85;1.32;;;15.10;99.90;;;;;;2038106;69;21052;-77
2021/07/06 04:46:44;;;;;;;2.42;1.30;;;15.10;99.90;;;;;;2039043;70;21052;-77
2021/07/06 04:49:10;;;;;;;2.42;1.17;;;15.10;99.90;;;;;;2038226;70;21021;-76
2021/07/06 04:51:36;;;;;;;4.58;1.22;;;15.20;99.90;;;;;;2040041;70;21125;-77
2021/07/06 04:54:03;;;;;;;2.98;1.30;;;15.30;99.90;;;;;;2039916;70;21125;-76
2021/07/06 04:56:29;;;;;;;1.27;1.07;;;15.40;99.90;;;;;;2040605;69;21179;-77
2021/07/06 04:58:55;;;;;;;1.07;1.07;;;15.50;99.90;;;;;;2040076;69;21080;-77
2021/07/06 05:01:21;;;;;;;1.35;0.98;;;15.60;99.90;;;;;;2041097;70;21161;-76
2021/07/06 05:03:49;;;;;;;2.87;1.42;;;15.80;99.90;;;;;;2040775;70;21110;-77
2021/07/06 05:06:15;;;;;;;1.40;1.22;;;15.90;99.90;;;;;;2041864;70;21167;-77
2021/07/06 05:08:41;;;;;;;1.80;1.27;;;16.20;99.90;;;;;;2042980;69;21058;-77
2021/07/06 05:11:07;;;;;;;5.85;1.37;;;16.40;99.90;;;;;;2023091;70;21042;-78
2021/07/06 05:13:33;;;;;;;1.90;1.20;;;16.60;99.90;;;;;;2040623;69;21056;-77
2021/07/06 05:15:59;;;;;;;3.45;1.67;;;16.70;99.90;;;;;;2038825;70;21166;-78
2021/07/06 05:18:26;;;;;;;5.55;1.80;;;16.70;99.90;;;;;;2041841;69;21068;-80
2021/07/06 05:20:52;;;;;;;1.50;1.30;;;16.90;99.90;;;;;;2038902;70;21159;-77
2021/07/06 05:23:18;;;;;;;1.12;1.02;;;16.90;99.90;;;;;;2040871;70;21052;-75
2021/07/06 05:25:44;;;;;;;1.75;1.20;;;16.80;99.90;;;;;;2038418;69;21452;-76
2021/07/06 05:28:10;;;;;;;1.35;1.07;;;16.60;99.90;;;;;;2038552;70;21590;-77
2021/07/06 05:30:36;;;;;;;1.60;1.25;;;16.70;99.90;;;;;;2040332;70;21040;-75
2021/07/06 05:33:02;;;;;;;1.25;1.12;;;16.60;99.90;;;;;;2038613;70;21069;-76
2021/07/06 05:35:29;;;;;;;2.87;1.35;;;17.00;99.90;;;;;;2040701;70;21055;-76
2021/07/06 05:37:55;;;;;;;7.58;1.10;;;17.70;99.90;;;;;;2040480;69;21090;-75
2021/07/06 05:40:21;;;;;;;3.55;1.10;;;19.00;99.90;;;;;;2041075;70;21113;-77
2021/07/06 05:42:47;;;;;;;2.00;1.32;;;20.00;99.90;;;;;;2040964;69;21036;-74
2021/07/06 05:45:13;;;;;;;1.52;1.35;;;20.60;99.90;;;;;;2040397;69;21051;-73
2021/07/06 05:47:39;;;;;;;1.55;1.00;;;21.30;99.90;;;;;;2040635;70;21125;-74
2021/07/06 05:50:06;;;;;;;4.72;0.72;;;21.80;99.90;;;;;;2038446;70;21185;-73
2021/07/06 05:52:33;;;;;;;5.62;1.07;;;22.30;99.90;;;;;;2040279;70;21533;-74
2021/07/06 05:54:59;;;;;;;1.40;0.90;;;23.50;99.90;;;;;;2040563;70;21111;-74
2021/07/06 05:57:31;;;;;;;1.20;0.93;;;25.00;99.90;;;;;;2038240;70;21107;-74
2021/07/06 05:59:57;;;;;;;3.83;0.70;;;25.70;99.90;;;;;;2039249;70;21056;-75
2021/07/06 06:02:23;;;;;;;0.85;0.85;;;26.40;99.90;;;;;;2040596;70;21533;-75
2021/07/06 06:04:49;;;;;;;1.60;1.00;;;26.70;99.90;;;;;;2039585;70;21589;-75
2021/07/06 06:07:16;;;;;;;2.22;0.90;;;26.80;99.90;;;;;;2038715;70;21503;-76
2021/07/06 06:09:42;;;;;;;2.72;1.10;;;26.90;99.90;;;;;;2040376;70;21468;-75
2021/07/06 06:12:08;;;;;;;1.85;1.30;;;28.10;99.90;;;;;;2039844;70;21499;-75
2021/07/06 06:14:34;;;;;;;1.70;1.20;;;28.10;99.90;;;;;;2039019;69;21076;-75
2021/07/06 06:17:00;;;;;;;3.15;1.35;;;28.10;99.90;;;;;;2040228;70;21110;-76
2021/07/06 06:19:26;;;;;;;3.25;1.10;;;28.20;99.90;;;;;;2039127;69;21126;-76
2021/07/06 06:21:52;;;;;;;1.95;1.30;;;27.80;99.90;;;;;;2040662;70;21048;-75
2021/07/06 06:24:19;;;;;;;4.25;1.00;;;27.70;99.90;;;;;;2039264;69;21052;-76
2021/07/06 06:26:47;;;;;;;6.35;1.12;;;28.30;99.90;;;;;;2039543;70;21024;-77
2021/07/06 06:29:12;;;;;;;1.92;1.17;;;28.60;99.90;;;;;;2039463;70;21089;-76
2021/07/06 06:31:39;;;;;;;2.90;1.20;;;28.10;99.90;;;;;;2041806;69;21076;-75
2021/07/06 06:34:05;;;;;;;1.42;0.70;;;28.80;99.90;;;;;;2039492;70;21370;-76
2021/07/06 06:36:31;;;;;;;3.02;1.00;;;28.50;99.90;;;;;;2039956;69;21114;-77
2021/07/06 06:38:57;;;;;;;2.40;0.95;;;28.20;99.90;;;;;;2040690;70;21038;-77
2021/07/06 06:41:23;;;;;;;1.77;1.00;;;28.50;99.90;;;;;;2040105;70;21051;-77
2021/07/06 06:43:49;;;;;;;2.05;1.02;;;29.20;99.90;;;;;;2040826;70;21056;-76
2021/07/06 06:46:16;;;;;;;2.45;0.90;;;29.80;99.90;;;;;;2039907;70;21111;-77
2021/07/06 06:48:42;;;;;;;2.70;0.70;;;30.00;99.90;;;;;;2039456;70;21125;-77
2021/07/06 06:51:08;;;;;;;0.78;0.53;;;30.20;99.90;;;;;;2040209;70;21101;-77
2021/07/06 06:53:34;;;;;;;0.68;0.50;;;30.70;99.90;;;;;;2042776;70;21056;-78
2021/07/06 06:56:01;;;;;;;1.15;0.82;;;31.00;99.90;;;;;;2040262;69;21024;-76
2021/07/06 06:58:27;;;;;;;0.40;0.40;;;31.50;99.90;;;;;;2043982;70;21025;-77
2021/07/06 07:00:53;;;;;;;1.22;0.70;;;31.50;99.90;;;;;;2040840;70;21507;-76
2021/07/06 07:03:19;;;;;;;2.30;0.90;;;31.10;99.90;;;;;;2038886;70;21080;-77
2021/07/06 07:05:46;;;;;;;0.55;0.55;;;30.80;99.90;;;;;;2040040;70;21128;-78
2021/07/06 07:08:12;;;;;;;2.72;0.72;;;30.60;99.90;;;;;;2040888;69;21048;-78
2021/07/06 07:10:40;;;;;;;1.55;0.90;;;30.30;99.90;;;;;;2043403;70;21110;-78
2021/07/06 07:13:06;;;;;;;1.40;1.00;;;30.20;99.90;;;;;;2043791;70;21242;-77
2021/07/06 07:15:32;;;;;;;3.45;1.05;;;31.10;99.90;;;;;;2042549;70;21049;-77
2021/07/06 07:17:58;;;;;;;4.50;0.90;;;30.90;99.90;;;;;;2042510;69;21099;-78
2021/07/06 07:20:24;;;;;;;1.82;1.10;;;31.00;99.90;;;;;;2043037;69;21026;-77
2021/07/06 07:22:51;;;;;;;5.62;1.00;;;30.20;99.90;;;;;;2040392;69;21540;-78
2021/07/06 07:25:17;;;;;;;8.25;0.50;;;29.30;99.90;;;;;;2040448;70;21511;-78
2021/07/06 07:27:43;;;;;;;4.25;0.93;;;28.70;99.90;;;;;;2039937;69;21044;-77
2021/07/06 07:30:10;;;;;;;1.60;0.80;;;28.30;99.90;;;;;;2041004;70;21052;-78
2021/07/06 07:32:36;;;;;;;2.70;1.25;;;28.20;99.90;;;;;;2041067;70;21122;-77
2021/07/06 07:35:03;;;;;;;1.47;0.70;;;28.50;99.90;;;;;;2039058;70;21048;-79
2021/07/06 07:37:29;;;;;;;5.65;0.80;;;28.60;99.90;;;;;;2040455;70;21052;-78
2021/07/06 07:39:55;;;;;;;1.65;0.80;;;28.70;99.90;;;;;;2039403;70;21110;-79
2021/07/06 07:42:21;;;;;;;1.20;0.80;;;28.30;99.90;;;;;;2043187;70;21037;-78
2021/07/06 07:44:47;;;;;;;2.35;0.90;;;28.40;99.90;;;;;;2043316;68;21297;-78
2021/07/06 07:47:14;;;;;;;1.70;0.85;;;28.10;99.90;;;;;;2039798;70;21064;-77
2021/07/06 07:49:40;;;;;;;1.55;0.60;;;28.60;99.90;;;;;;2038061;70;21469;-78
2021/07/06 07:52:06;;;;;;;4.67;0.70;;;28.90;99.90;;;;;;2039998;70;21111;-78
2021/07/06 07:54:32;;;;;;;1.50;0.57;;;29.10;99.90;;;;;;2038169;69;21069;-78
2021/07/06 07:56:58;;;;;;;4.60;0.80;;;29.00;99.90;;;;;;2044917;68;21069;-79
2021/07/06 07:59:29;;;;;;;2.35;0.98;;;29.20;99.90;;;;;;2042691;70;21052;-78
2021/07/06 08:01:55;;;;;;;1.70;0.80;;;29.30;99.90;;;;;;2041065;70;21123;-77
2021/07/06 08:04:21;;;;;;;1.25;0.60;;;29.10;99.90;;;;;;2038985;70;21130;-77
2021/07/06 08:06:48;;;;;;;1.10;0.60;;;28.90;99.90;;;;;;2039907;70;21021;-77
2021/07/06 08:09:14;;;;;;;0.60;0.60;;;28.20;99.90;;;;;;2037867;70;21043;-77
2021/07/06 08:11:40;;;;;;;1.32;0.60;;;27.90;99.90;;;;;;2038406;70;21158;-78
2021/07/06 08:14:06;;;;;;;0.62;0.53;;;27.80;99.90;;;;;;2038865;70;21173;-77
2021/07/06 08:16:33;;;;;;;0.50;0.50;;;27.60;99.90;;;;;;2038663;70;21052;-77
2021/07/06 08:19:00;;;;;;;1.17;0.35;;;27.50;99.90;;;;;;2039643;70;21121;-78
2021/07/06 08:21:26;;;;;;;3.15;0.60;;;28.00;99.90;;;;;;2039920;70;21052;-78
2021/07/06 08:23:52;;;;;;;1.75;1.12;;;28.10;99.90;;;;;;2040876;70;21041;-77
2021/07/06 08:26:18;;;;;;;1.00;0.62;;;28.10;99.90;;;;;;2039631;70;21068;-78
2021/07/06 08:28:45;;;;;;;0.40;0.40;;;28.20;99.90;;;;;;2039664;70;21056;-78
2021/07/06 08:31:11;;;;;;;0.65;0.53;;;28.00;99.90;;;;;;2040079;70;21214;-78
2021/07/06 08:33:38;;;;;;;1.15;0.60;;;28.40;99.90;;;;;;2038560;69;21151;-77
2021/07/06 08:36:04;;;;;;;4.95;0.72;;;28.20;99.90;;;;;;2038371;70;21032;-78
2021/07/06 08:38:33;;;;;;;0.95;0.40;;;28.30;99.90;;;;;;2039874;70;21073;-77
2021/07/06 08:40:58;;;;;;;3.22;0.70;;;28.40;99.90;;;;;;2038647;70;21150;-78
2021/07/06 08:43:24;;;;;;;5.42;0.53;;;28.20;99.90;;;;;;2037996;70;21081;-78
2021/07/06 08:45:50;;;;;;;1.22;0.60;;;28.60;99.90;;;;;;2039207;70;21098;-78
2021/07/06 08:48:16;;;;;;;1.98;0.68;;;28.20;99.90;;;;;;2039538;69;21463;-78
2021/07/06 08:50:42;;;;;;;2.22;0.60;;;28.20;99.90;;;;;;2039382;69;21495;-77
2021/07/06 08:53:08;;;;;;;0.93;0.50;;;28.60;99.90;;;;;;2039229;70;21476;-78
2021/07/06 08:55:35;;;;;;;2.02;0.70;;;28.60;99.90;;;;;;2040103;70;21175;-78
2021/07/06 08:58:01;;;;;;;4.08;0.57;;;28.40;99.90;;;;;;2026843;70;21483;-77
2021/07/06 09:00:30;;;;;;;4.22;0.60;;;28.30;99.90;;;;;;2001366;72;21519;-75
2021/07/06 09:02:55;;;;;;;1.52;0.57;;;28.60;99.90;;;;;;2001762;71;21154;-77
2021/07/06 09:05:21;;;;;;;0.55;0.55;;;28.70;99.90;;;;;;2002106;71;21041;-78
2021/07/06 09:07:47;;;;;;;1.92;0.80;;;28.70;99.90;;;;;;2003266;71;21143;-77
2021/07/06 09:10:13;;;;;;;0.45;0.40;;;28.60;99.90;;;;;;2001793;71;21136;-78
2021/07/06 09:12:39;;;;;;;1.82;0.70;;;29.10;99.90;;;;;;2001913;71;21149;-77
2021/07/06 09:15:05;;;;;;;1.98;0.70;;;29.10;99.90;;;;;;1990876;71;21081;-78
2021/07/06 09:17:31;;;;;;;1.57;0.50;;;29.50;99.90;;;;;;2002440;71;21101;-77
2021/07/06 09:19:57;;;;;;;2.80;0.65;;;29.20;99.90;;;;;;2004487;70;21119;-77
2021/07/06 09:22:30;;;;;;;0.65;0.40;;;29.10;99.90;;;;;;2006894;70;21091;-77
2021/07/06 09:24:52;;;;;;;1.05;0.53;;;28.30;99.90;;;;;;2000421;70;21087;-77
2021/07/06 09:27:18;;;;;;;2.37;0.60;;;27.80;99.90;;;;;;2009092;71;21075;-78
2021/07/06 09:29:44;;;;;;;5.78;0.70;;;27.60;99.90;;;;;;2001635;70;21063;-77
2021/07/06 09:32:10;;;;;;;0.40;0.40;;;27.50;99.90;;;;;;2001442;70;21121;-78
2021/07/06 09:34:36;;;;;;;1.85;0.45;;;27.30;99.90;;;;;;2002919;71;21151;-78
2021/07/06 09:37:02;;;;;;;1.17;0.47;;;27.40;99.90;;;;;;2001586;71;21044;-78
2021/07/06 09:39:29;;;;;;;0.60;0.60;;;27.20;99.90;;;;;;2001478;71;21063;-77
2021/07/06 09:41:55;;;;;;;2.62;0.90;;;26.90;99.90;;;;;;2001874;70;21072;-77
2021/07/06 09:44:21;;;;;;;1.85;1.00;;;26.30;99.90;;;;;;2002651;71;21060;-76
2021/07/06 09:46:47;;;;;;;2.62;1.10;;;25.20;99.90;;;;;;2002647;70;21071;-77
2021/07/06 09:49:13;;;;;;;4.70;1.02;;;24.30;99.90;;;;;;2001759;71;21125;-78
2021/07/06 09:51:39;;;;;;;7.12;1.10;;;23.90;99.90;;;;;;2002205;71;21141;-76
2021/07/06 09:54:05;;;;;;;4.03;0.70;;;23.70;99.90;;;;;;2003596;72;21037;-76
2021/07/06 09:56:31;;;;;;;2.45;0.70;;;23.50;99.90;;;;;;2001759;70;21055;-77
2021/07/06 09:58:59;;;;;;;1.00;0.80;;;23.30;99.90;;;;;;2002690;71;21071;-77
2021/07/06 10:01:26;;;;;;;8.88;0.75;;;23.30;99.90;;;;;;2002118;71;21063;-76
2021/07/06 10:03:52;;;;;;;3.27;0.60;;;23.20;99.90;;;;;;2002476;70;21076;-75
2021/07/06 10:06:18;;;;;;;6.80;0.50;;;23.30;99.90;;;;;;2003618;70;21109;-77
2021/07/06 10:08:44;;;;;;;0.72;0.40;;;23.70;99.90;;;;;;2003414;71;21064;-77
2021/07/06 10:11:10;;;;;;;2.37;0.57;;;24.10;99.90;;;;;;2002883;71;21121;-75
2021/07/06 10:13:37;;;;;;;3.47;0.30;;;24.70;99.90;;;;;;2005069;71;21170;-77
2021/07/06 10:16:03;;;;;;;0.72;0.30;;;25.30;99.90;;;;;;2003248;71;21072;-75
2021/07/06 10:18:29;;;;;;;0.88;0.40;;;25.80;99.90;;;;;;2004519;71;21079;-77
2021/07/06 10:20:55;;;;;;;0.25;0.25;;;25.60;99.90;;;;;;2009828;70;21132;-77
2021/07/06 10:23:21;;;;;;;0.30;0.30;;;25.50;99.90;;;;;;2007409;71;21041;-77
2021/07/06 10:25:48;;;;;;;1.45;0.30;;;24.90;99.90;;;;;;2005892;72;21080;-76
2021/07/06 10:28:14;;;;;;;0.28;0.20;;;25.10;99.90;;;;;;2005738;72;21130;-76
2021/07/06 10:30:40;;;;;;;0.20;0.20;;;25.20;99.90;;;;;;2005389;71;21177;-77
2021/07/06 10:33:06;;;;;;;1.35;0.35;;;25.40;99.90;;;;;;2004464;70;21037;-76
2021/07/06 10:35:32;;;;;;;0.23;0.20;;;25.50;99.90;;;;;;2003521;70;21055;-76
2021/07/06 10:37:58;;;;;;;0.10;0.10;;;25.20;99.90;;;;;;2001293;71;21063;-77
2021/07/06 10:40:24;;;;;;;0.30;0.30;;;25.00;99.90;;;;;;2002667;70;21071;-77
2021/07/06 10:42:50;;;;;;;0.35;0.20;;;25.00;99.90;;;;;;2002460;70;21122;-76
2021/07/06 10:45:17;;;;;;;0.28;0.20;;;24.90;99.90;;;;;;2001559;72;21477;-77
2021/07/06 10:47:43;;;;;;;0.20;0.20;;;25.00;99.90;;;;;;2002399;71;21138;-77
2021/07/06 10:50:10;;;;;;;0.42;0.30;;;25.00;99.90;;;;;;2001555;72;21148;-77
2021/07/06 10:52:37;;;;;;;2.20;0.47;;;24.90;99.90;;;;;;2003376;71;21163;-76
2021/07/06 10:55:03;;;;;;;0.72;0.30;;;24.70;99.90;;;;;;2001558;70;21121;-76
2021/07/06 10:57:29;;;;;;;2.17;0.50;;;24.50;99.90;;;;;;2002317;71;21121;-77
2021/07/06 10:59:55;;;;;;;0.33;0.33;;;24.30;99.90;;;;;;2003170;71;21055;-77
2021/07/06 11:02:21;;;;;;;0.68;0.33;;;23.80;99.90;;;;;;2001792;71;21072;-77
2021/07/06 11:04:52;;;;;;;3.60;0.82;;;24.20;99.90;;;;;;2002365;71;21072;-76
2021/07/06 11:07:15;;;;;;;0.75;0.30;;;24.50;99.90;;;;;;2001119;71;21080;-77
2021/07/06 11:09:41;;;;;;;2.02;0.40;;;24.90;99.90;;;;;;2001635;70;21068;-78
2021/07/06 11:12:07;;;;;;;2.02;0.62;;;25.10;99.90;;;;;;2003257;71;21090;-76
2021/07/06 11:14:34;;;;;;;0.50;0.30;;;25.30;99.90;;;;;;2003261;71;21080;-77
2021/07/06 11:17:00;;;;;;;0.55;0.47;;;25.20;99.90;;;;;;2002431;71;21257;-77
2021/07/06 11:19:26;;;;;;;0.53;0.50;;;25.10;99.90;;;;;;2002647;71;21063;-77
2021/07/06 11:21:52;;;;;;;0.80;0.35;;;25.20;99.90;;;;;;2003812;72;21077;-77
2021/07/06 11:24:18;;;;;;;0.25;0.15;;;25.10;99.90;;;;;;2003356;70;21113;-77
2021/07/06 11:26:44;;;;;;;0.40;0.30;;;25.60;99.90;;;;;;2003224;71;21144;-78
2021/07/06 11:29:11;;;;;;;2.40;0.47;;;26.10;99.90;;;;;;2003162;71;21133;-79
2021/07/06 11:31:37;;;;;;;7.50;0.35;;;25.60;99.90;;;;;;1965208;71;21103;-78
2021/07/06 11:34:05;;;;;;;1.20;0.47;;;25.50;99.90;;;;;;2002754;70;21122;-78
2021/07/06 11:36:32;;;;;;;1.50;0.28;;;25.40;99.90;;;;;;2001769;71;21145;-79
2021/07/06 11:39:00;;;;;;;4.30;0.45;;;25.30;99.90;;;;;;2002215;71;21044;-77
2021/07/06 11:41:26;;;;;;;0.40;0.40;;;25.40;99.90;;;;;;2002385;71;21104;-78
2021/07/06 11:43:53;;;;;;;0.40;0.30;;;25.60;99.90;;;;;;2002257;71;21068;-76
2021/07/06 11:46:19;;;;;;;1.72;0.50;;;25.60;99.90;;;;;;2002539;70;21129;-76
2021/07/06 11:48:47;;;;;;;0.40;0.40;;;25.30;99.90;;;;;;2003547;72;21060;-77
2021/07/06 11:51:13;;;;;;;2.15;0.40;;;25.20;99.90;;;;;;2001774;71;21473;-77
2021/07/06 11:53:39;;;;;;;4.55;1.10;;;25.10;99.90;;;;;;2002527;71;21161;-78
2021/07/06 11:56:05;;;;;;;0.60;0.57;;;25.20;99.90;;;;;;2002953;71;21229;-77
2021/07/06 11:58:31;;;;;;;1.10;0.40;;;25.20;99.90;;;;;;2001686;71;21069;-77
2021/07/06 12:00:59;;;;;;;1.25;0.42;;;25.10;99.90;;;;;;2002155;72;21130;-77
2021/07/06 12:03:26;;;;;;;0.30;0.30;;;24.90;99.90;;;;;;2003478;71;21092;-78
2021/07/06 12:05:52;;;;;;;2.20;0.65;;;25.00;99.90;;;;;;2003460;72;21442;-77
2021/07/06 12:08:18;;;;;;;1.02;0.42;;;25.20;99.90;;;;;;2004450;71;21067;-78
2021/07/06 12:10:44;;;;;;;1.67;0.42;;;25.50;99.90;;;;;;2004243;71;21043;-76
2021/07/06 12:13:11;;;;;;;1.02;0.57;;;25.80;99.90;;;;;;2004652;72;21185;-76
2021/07/06 12:15:40;;;;;;;1.07;0.45;;;25.60;99.90;;;;;;2005845;70;21106;-77
2021/07/06 12:18:05;;;;;;;1.30;0.62;;;25.80;99.90;;;;;;2003706;71;21045;-77
2021/07/06 12:20:31;;;;;;;2.47;0.62;;;26.20;99.90;;;;;;2005708;70;21102;-78
2021/07/06 12:22:57;;;;;;;1.20;0.50;;;26.20;99.90;;;;;;2002123;70;21095;-77
2021/07/06 12:25:23;;;;;;;2.30;0.45;;;26.10;99.90;;;;;;2001926;71;21471;-77
2021/07/06 12:27:49;;;;;;;2.10;0.50;;;26.20;99.90;;;;;;2003255;71;21069;-77
2021/07/06 12:30:16;;;;;;;4.50;0.65;;;25.50;99.90;;;;;;2002792;71;21413;-78
2021/07/06 12:32:42;;;;;;;0.62;0.62;;;25.20;99.90;;;;;;2002344;71;21524;-78
2021/07/06 12:35:08;;;;;;;0.37;0.37;;;25.20;99.90;;;;;;2001100;71;21455;-76
2021/07/06 12:37:35;;;;;;;1.52;0.53;;;25.10;99.90;;;;;;2003286;71;21171;-78
2021/07/06 12:40:01;;;;;;;0.42;0.40;;;24.80;99.90;;;;;;2003167;72;21174;-77
2021/07/06 12:42:28;;;;;;;0.40;0.40;;;25.00;99.90;;;;;;2001453;70;21067;-78